Time;durP1;ratioP1;P1;durP2;ratioP2;P2;SDS_P1;SDS_P2;PMS_P1;PMS_P2;Temp;Humidity;BMP_temperature;BMP_pressure;BME280_temperature;BME280_humidity;BME280_pressure;Samples;Min_cycle;Max_cycle;Signal;HPM_P1;HPM_P2
2021/01/10 00:02:15;;;;;;;11.97;6.00;;;;;;;;;;10338947;28;20052;-61
2021/01/10 00:07:13;;;;;;;11.30;6.47;;;;;;;;;;10333638;28;20071;-60
2021/01/10 00:12:10;;;;;;;19.00;7.20;;;;;;;;;;10341189;28;20028;-61
2021/01/10 00:17:07;;;;;;;19.20;8.00;;;;;;;;;;10338062;28;20021;-62
2021/01/10 00:22:09;;;;;;;13.03;6.90;;;;;;;;;;10327267;28;20041;-61
2021/01/10 00:27:13;;;;;;;16.83;8.77;;;;;;;;;;10310199;28;20072;-61
2021/01/10 00:32:11;;;;;;;17.58;9.57;;;;;;;;;;10328729;28;20078;-61
2021/01/10 00:37:12;;;;;;;16.17;7.80;;;;;;;;;;10323863;28;20505;-61
2021/01/10 00:42:13;;;;;;;20.00;8.75;;;;;;;;;;10312516;28;20051;-61
2021/01/10 00:47:10;;;;;;;17.23;9.07;;;;;;;;;;10305182;28;20599;-61
2021/01/10 00:52:08;;;;;;;12.00;6.75;;;;;;;;;;10305122;28;20025;-61
2021/01/10 00:57:06;;;;;;;12.65;7.22;;;;;;;;;;10308454;28;20033;-60
2021/01/10 01:02:04;;;;;;;16.45;8.00;;;;;;;;;;10314309;28;20076;-61
2021/01/10 01:07:03;;;;;;;22.40;9.70;;;;;;;;;;10311577;28;20029;-58
2021/01/10 01:12:03;;;;;;;24.25;9.73;;;;;;;;;;10311682;28;20045;-61
2021/01/10 01:17:00;;;;;;;23.15;9.45;;;;;;;;;;10318066;28;20029;-60
2021/01/10 01:22:00;;;;;;;18.00;8.27;;;;;;;;;;10311339;28;20502;-58
2021/01/10 01:26:57;;;;;;;22.00;8.40;;;;;;;;;;10314576;28;20021;-60
2021/01/10 01:31:54;;;;;;;28.27;10.33;;;;;;;;;;10311605;28;20399;-58
2021/01/10 01:36:52;;;;;;;20.70;9.33;;;;;;;;;;10319659;28;20065;-60
2021/01/10 01:41:49;;;;;;;28.17;10.67;;;;;;;;;;10299829;28;20056;-60
2021/01/10 01:46:47;;;;;;;25.97;9.83;;;;;;;;;;10313611;28;20045;-60
2021/01/10 01:51:44;;;;;;;25.83;11.03;;;;;;;;;;10315216;28;20040;-61
2021/01/10 01:56:41;;;;;;;16.65;8.35;;;;;;;;;;10311002;28;20045;-59
2021/01/10 02:01:39;;;;;;;12.87;6.93;;;;;;;;;;10309826;28;20029;-60
2021/01/10 02:07:00;;;;;;;13.57;7.13;;;;;;;;;;10307536;28;20119;-60
2021/01/10 02:12:01;;;;;;;14.93;6.38;;;;;;;;;;10301772;28;20063;-60
2021/01/10 02:17:00;;;;;;;14.48;5.15;;;;;;;;;;10305294;28;20041;-58
2021/01/10 02:21:59;;;;;;;19.42;8.90;;;;;;;;;;10312029;28;20144;-61
2021/01/10 02:26:57;;;;;;;12.38;7.07;;;;;;;;;;10292959;28;20086;-60
2021/01/10 02:31:56;;;;;;;18.40;7.93;;;;;;;;;;10310158;28;20064;-59
2021/01/10 02:37:23;;;;;;;21.58;5.22;;;;;;;;;;10312735;28;20136;-59
2021/01/10 02:42:39;;;;;;;31.95;9.63;;;;;;;;;;10296932;28;20056;-58
2021/01/10 02:47:37;;;;;;;30.38;11.05;;;;;;;;;;10305031;28;20041;-57
2021/01/10 02:52:35;;;;;;;25.95;11.13;;;;;;;;;;10311052;28;20170;-56
2021/01/10 02:57:35;;;;;;;24.73;8.67;;;;;;;;;;10300522;28;20130;-60
2021/01/10 03:02:33;;;;;;;15.90;7.50;;;;;;;;;;10315573;28;20341;-60
2021/01/10 03:07:34;;;;;;;26.77;10.25;;;;;;;;;;10313264;28;20037;-59
2021/01/10 03:12:32;;;;;;;22.88;8.82;;;;;;;;;;10324494;28;20167;-60
2021/01/10 03:17:29;;;;;;;19.23;9.70;;;;;;;;;;10313261;28;20124;-61
2021/01/10 03:22:27;;;;;;;26.03;11.03;;;;;;;;;;10302029;28;20382;-61
2021/01/10 03:27:25;;;;;;;26.80;10.63;;;;;;;;;;10336136;28;20037;-58
2021/01/10 03:32:22;;;;;;;38.03;11.63;;;;;;;;;;10337184;28;20041;-61
2021/01/10 03:37:20;;;;;;;11.83;6.50;;;;;;;;;;10332410;28;20060;-60
2021/01/10 03:42:17;;;;;;;34.73;13.03;;;;;;;;;;10337245;28;20099;-58
2021/01/10 03:47:15;;;;;;;32.78;12.05;;;;;;;;;;10322262;28;20048;-60
2021/01/10 03:52:12;;;;;;;28.07;9.53;;;;;;;;;;10336344;28;20033;-60
2021/01/10 03:57:10;;;;;;;35.20;13.03;;;;;;;;;;10328806;28;20041;-60
2021/01/10 04:02:07;;;;;;;25.70;10.10;;;;;;;;;;10293375;28;20091;-61
2021/01/10 04:07:06;;;;;;;35.73;11.27;;;;;;;;;;10307997;28;20491;-60
2021/01/10 04:12:03;;;;;;;22.95;9.32;;;;;;;;;;10317040;28;20051;-61
2021/01/10 04:17:01;;;;;;;30.67;10.27;;;;;;;;;;10320788;28;20035;-61
2021/01/10 04:21:58;;;;;;;34.47;10.53;;;;;;;;;;10312610;28;20122;-61
2021/01/10 04:26:56;;;;;;;26.93;12.23;;;;;;;;;;10311767;28;20117;-62
2021/01/10 04:31:54;;;;;;;41.30;14.13;;;;;;;;;;10315380;28;20044;-61
2021/01/10 04:36:52;;;;;;;44.50;14.02;;;;;;;;;;10314422;28;20522;-62
2021/01/10 04:41:49;;;;;;;34.97;13.10;;;;;;;;;;10336785;28;20049;-58
2021/01/10 04:46:47;;;;;;;39.80;15.30;;;;;;;;;;10311150;28;20094;-59
2021/01/10 04:51:45;;;;;;;37.67;11.65;;;;;;;;;;10315589;28;20348;-59
2021/01/10 04:56:43;;;;;;;41.67;12.57;;;;;;;;;;10316667;28;20137;-60
2021/01/10 05:01:45;;;;;;;45.20;13.48;;;;;;;;;;10308267;28;20045;-59
2021/01/10 05:06:43;;;;;;;26.65;11.13;;;;;;;;;;10307408;28;20120;-60
2021/01/10 05:11:41;;;;;;;42.67;13.30;;;;;;;;;;10305781;28;21539;-60
2021/01/10 05:16:39;;;;;;;43.87;13.53;;;;;;;;;;10313647;28;20086;-61
2021/01/10 05:21:36;;;;;;;;;;;;;;;;;;10321283;28;20041;-58
2021/01/10 05:26:35;;;;;;;46.05;15.25;;;;;;;;;;10299077;28;19942;-60
2021/01/10 05:31:33;;;;;;;29.35;9.88;;;;;;;;;;10304526;28;20320;-60
2021/01/10 05:36:31;;;;;;;25.23;10.23;;;;;;;;;;10315896;28;20039;-60
2021/01/10 05:41:29;;;;;;;40.95;13.25;;;;;;;;;;10307679;28;20412;-57
2021/01/10 05:46:29;;;;;;;19.00;7.63;;;;;;;;;;10310719;28;20033;-60
2021/01/10 05:51:27;;;;;;;25.15;10.43;;;;;;;;;;10306412;28;20049;-61
2021/01/10 05:56:25;;;;;;;28.17;11.48;;;;;;;;;;10306461;28;20041;-59
2021/01/10 06:01:23;;;;;;;23.70;9.07;;;;;;;;;;10303793;28;20041;-59
2021/01/10 06:06:20;;;;;;;25.85;10.25;;;;;;;;;;10301833;28;20076;-61
2021/01/10 06:11:18;;;;;;;34.47;11.00;;;;;;;;;;10318432;28;20110;-61
2021/01/10 06:16:16;;;;;;;22.87;10.10;;;;;;;;;;10301774;28;20041;-57
2021/01/10 06:21:16;;;;;;;23.50;10.50;;;;;;;;;;10315665;28;20519;-60
2021/01/10 06:26:15;;;;;;;22.23;9.48;;;;;;;;;;10312345;28;20045;-60
2021/01/10 06:31:17;;;;;;;26.63;8.82;;;;;;;;;;10307197;28;20044;-59
2021/01/10 06:36:17;;;;;;;29.75;9.88;;;;;;;;;;10315040;28;20546;-60
2021/01/10 06:41:30;;;;;;;28.02;11.38;;;;;;;;;;10310715;28;20110;-60
2021/01/10 06:46:27;;;;;;;26.27;9.43;;;;;;;;;;10301305;28;20132;-58
2021/01/10 06:51:25;;;;;;;33.90;11.73;;;;;;;;;;10313466;28;20065;-61
2021/01/10 06:56:23;;;;;;;27.25;10.93;;;;;;;;;;10316123;28;20041;-61
2021/01/10 07:01:20;;;;;;;27.60;11.37;;;;;;;;;;10309152;28;20032;-61
2021/01/10 07:06:18;;;;;;;25.43;10.30;;;;;;;;;;10328034;28;20044;-58
2021/01/10 07:11:22;;;;;;;35.60;11.07;;;;;;;;;;10326386;28;20071;-60
2021/01/10 07:16:20;;;;;;;35.53;11.35;;;;;;;;;;10321696;28;20433;-61
2021/01/10 07:21:36;;;;;;;26.92;9.98;;;;;;;;;;10306218;28;20068;-60
2021/01/10 07:26:45;;;;;;;33.75;11.60;;;;;;;;;;10319177;28;20044;-60
2021/01/10 07:31:52;;;;;;;31.15;11.15;;;;;;;;;;10295565;28;20025;-62
2021/01/10 07:36:54;;;;;;;33.08;11.75;;;;;;;;;;10318055;28;20440;-61
2021/01/10 07:41:52;;;;;;;34.33;12.00;;;;;;;;;;10310121;28;20045;-61
2021/01/10 07:46:59;;;;;;;35.25;13.13;;;;;;;;;;10303885;28;20064;-60
2021/01/10 07:51:57;;;;;;;37.70;12.68;;;;;;;;;;10308695;28;20124;-59
2021/01/10 07:57:13;;;;;;;30.73;12.93;;;;;;;;;;10304521;28;20098;-58
2021/01/10 08:02:11;;;;;;;26.15;12.30;;;;;;;;;;10300647;28;20080;-59
2021/01/10 08:07:11;;;;;;;29.43;12.07;;;;;;;;;;10311783;28;20047;-62
2021/01/10 08:12:08;;;;;;;29.90;11.90;;;;;;;;;;10298516;28;20534;-62
2021/01/10 08:17:16;;;;;;;28.33;11.93;;;;;;;;;;10303099;28;20427;-61
2021/01/10 08:22:15;;;;;;;30.65;11.93;;;;;;;;;;10302230;28;20047;-60
2021/01/10 08:27:13;;;;;;;21.85;11.07;;;;;;;;;;10306079;28;20071;-61
2021/01/10 08:32:11;;;;;;;26.52;11.23;;;;;;;;;;10309420;28;20159;-61
2021/01/10 08:37:08;;;;;;;25.10;12.17;;;;;;;;;;10299521;28;20049;-61
2021/01/10 08:42:05;;;;;;;28.77;11.70;;;;;;;;;;10314824;28;20784;-61
2021/01/10 08:47:06;;;;;;;23.50;10.83;;;;;;;;;;10309260;28;20499;-61
2021/01/10 08:52:04;;;;;;;23.25;9.65;;;;;;;;;;10308894;28;20032;-61
2021/01/10 08:57:02;;;;;;;24.63;7.65;;;;;;;;;;10302379;28;20072;-59
2021/01/10 09:02:05;;;;;;;25.45;9.95;;;;;;;;;;10308581;28;20044;-61
2021/01/10 09:07:25;;;;;;;21.60;8.70;;;;;;;;;;10298120;28;20063;-60
2021/01/10 09:12:30;;;;;;;20.92;8.95;;;;;;;;;;10308882;28;20464;-61
2021/01/10 09:17:29;;;;;;;27.48;10.82;;;;;;;;;;10309653;28;20069;-59
2021/01/10 09:22:30;;;;;;;33.20;10.43;;;;;;;;;;10304272;28;20041;-59
2021/01/10 09:27:27;;;;;;;28.25;10.68;;;;;;;;;;10301301;28;20048;-59
2021/01/10 09:32:25;;;;;;;23.07;9.13;;;;;;;;;;10304706;28;20048;-60
2021/01/10 09:37:30;;;;;;;19.70;8.20;;;;;;;;;;10300887;28;20052;-57
2021/01/10 09:42:39;;;;;;;22.40;11.07;;;;;;;;;;10302767;28;20603;-59
2021/01/10 09:47:36;;;;;;;;;;;;;;;;;;10307109;28;20041;-60
2021/01/10 09:52:44;;;;;;;27.92;10.75;;;;;;;;;;10309910;28;20456;-62
2021/01/10 09:57:42;;;;;;;20.37;8.10;;;;;;;;;;10310484;28;21329;-61
2021/01/10 10:02:39;;;;;;;25.87;10.10;;;;;;;;;;10304061;28;20045;-60
2021/01/10 10:07:41;;;;;;;23.37;8.97;;;;;;;;;;10312981;28;20116;-61
2021/01/10 10:12:38;;;;;;;19.48;8.48;;;;;;;;;;10307901;28;20086;-60
2021/01/10 10:17:37;;;;;;;19.50;7.80;;;;;;;;;;10306016;28;20029;-60
2021/01/10 10:22:35;;;;;;;18.42;8.93;;;;;;;;;;10297755;28;20044;-61
2021/01/10 10:27:32;;;;;;;20.17;8.45;;;;;;;;;;10308563;28;20061;-61
2021/01/10 10:32:31;;;;;;;19.67;8.50;;;;;;;;;;10307054;28;20033;-60
2021/01/10 10:37:28;;;;;;;;;;;;;;;;;;10302433;28;20071;-60
2021/01/10 10:42:25;;;;;;;16.15;8.35;;;;;;;;;;10306892;28;19920;-60
2021/01/10 10:47:23;;;;;;;20.60;8.80;;;;;;;;;;10303072;28;20044;-62
2021/01/10 10:52:20;;;;;;;15.50;6.77;;;;;;;;;;10308002;28;20110;-60
2021/01/10 10:57:18;;;;;;;19.07;7.80;;;;;;;;;;10302536;28;20099;-60
2021/01/10 11:02:15;;;;;;;18.77;8.27;;;;;;;;;;10297559;28;20037;-62
2021/01/10 11:07:13;;;;;;;21.50;7.50;;;;;;;;;;10305695;28;20036;-60
2021/01/10 11:12:11;;;;;;;18.27;7.73;;;;;;;;;;10297308;28;20040;-61
2021/01/10 11:17:09;;;;;;;11.37;7.37;;;;;;;;;;10309656;28;20538;-61
2021/01/10 11:22:07;;;;;;;16.10;7.47;;;;;;;;;;10296519;28;20068;-60
2021/01/10 11:27:04;;;;;;;17.67;6.25;;;;;;;;;;10301939;28;20131;-60
2021/01/10 11:32:02;;;;;;;15.20;7.53;;;;;;;;;;10299899;28;20495;-61
2021/01/10 11:37:00;;;;;;;15.50;6.78;;;;;;;;;;10298625;28;20621;-61
2021/01/10 11:41:57;;;;;;;12.93;6.33;;;;;;;;;;10301349;28;20169;-62
2021/01/10 11:46:55;;;;;;;11.03;5.03;;;;;;;;;;10298972;28;20778;-60
2021/01/10 11:51:52;;;;;;;12.37;5.77;;;;;;;;;;10297827;28;20503;-60
2021/01/10 11:56:50;;;;;;;10.87;5.73;;;;;;;;;;10312527;28;20433;-61
2021/01/10 12:01:47;;;;;;;14.30;6.03;;;;;;;;;;10303955;28;20025;-60
2021/01/10 12:06:45;;;;;;;12.53;5.03;;;;;;;;;;10298077;28;20033;-60
2021/01/10 12:11:42;;;;;;;10.53;5.07;;;;;;;;;;10298064;28;20119;-62
2021/01/10 12:16:40;;;;;;;9.43;4.83;;;;;;;;;;10306702;28;20106;-63
2021/01/10 12:21:37;;;;;;;12.03;5.90;;;;;;;;;;10287374;28;20033;-61
2021/01/10 12:26:34;;;;;;;10.23;5.07;;;;;;;;;;10288371;28;20045;-61
2021/01/10 12:31:32;;;;;;;6.57;4.47;;;;;;;;;;10304640;28;20040;-59
2021/01/10 12:36:29;;;;;;;13.63;5.50;;;;;;;;;;10305429;28;20044;-59
2021/01/10 12:41:27;;;;;;;30.60;6.73;;;;;;;;;;10302007;28;20065;-61
2021/01/10 12:46:33;;;;;;;48.10;9.27;;;;;;;;;;10307752;28;20061;-61
2021/01/10 12:51:37;;;;;;;24.83;7.22;;;;;;;;;;10307897;28;20432;-60
2021/01/10 12:56:34;;;;;;;23.05;6.75;;;;;;;;;;10312434;28;20041;-61
2021/01/10 13:01:34;;;;;;;14.73;6.23;;;;;;;;;;10293061;28;20041;-60
2021/01/10 13:06:35;;;;;;;14.75;6.32;;;;;;;;;;10302958;28;20045;-61
2021/01/10 13:11:32;;;;;;;15.15;6.82;;;;;;;;;;10304242;28;20041;-61
2021/01/10 13:16:29;;;;;;;14.50;5.80;;;;;;;;;;10294443;28;20106;-58
2021/01/10 13:21:27;;;;;;;12.70;5.17;;;;;;;;;;10301216;28;20036;-61
2021/01/10 13:26:24;;;;;;;40.20;8.33;;;;;;;;;;10307745;28;20056;-59
2021/01/10 13:31:22;;;;;;;64.20;9.77;;;;;;;;;;10312180;28;20136;-66
2021/01/10 13:36:21;;;;;;;39.30;7.40;;;;;;;;;;10293544;28;20044;-62
2021/01/10 13:41:20;;;;;;;48.83;8.52;;;;;;;;;;10305054;28;20037;-65
2021/01/10 13:46:19;;;;;;;57.47;9.00;;;;;;;;;;10306866;28;20098;-63
2021/01/10 13:51:25;;;;;;;39.88;7.78;;;;;;;;;;10305566;28;20068;-63
2021/01/10 13:56:23;;;;;;;27.00;7.75;;;;;;;;;;10303967;28;20507;-63
2021/01/10 14:01:20;;;;;;;;;;;;;;;;;;10311024;28;20380;-65
2021/01/10 14:06:19;;;;;;;22.08;6.75;;;;;;;;;;10302948;28;19924;-62
2021/01/10 14:11:17;;;;;;;25.17;6.13;;;;;;;;;;10307887;28;20112;-63
2021/01/10 14:16:17;;;;;;;;;;;;;;;;;;10308796;28;20554;-62
2021/01/10 14:21:23;;;;;;;22.05;6.15;;;;;;;;;;10310535;28;19913;-63
2021/01/10 14:26:29;;;;;;;15.70;5.43;;;;;;;;;;10310094;28;20045;-63
2021/01/10 14:31:27;;;;;;;15.85;4.53;;;;;;;;;;10298189;28;20495;-65
2021/01/10 14:36:24;;;;;;;16.93;5.50;;;;;;;;;;10310434;28;20037;-62
2021/01/10 14:41:23;;;;;;;12.27;4.50;;;;;;;;;;10305299;28;20067;-65
2021/01/10 14:46:21;;;;;;;15.60;4.60;;;;;;;;;;10308177;28;20060;-63
2021/01/10 14:51:22;;;;;;;11.65;3.75;;;;;;;;;;10298744;28;20041;-63
2021/01/10 14:56:23;;;;;;;11.07;3.92;;;;;;;;;;10307619;28;20048;-62
2021/01/10 15:01:21;;;;;;;12.85;4.55;;;;;;;;;;10317267;28;20133;-63
2021/01/10 15:06:19;;;;;;;10.13;4.47;;;;;;;;;;10304001;28;20411;-61
2021/01/10 15:11:17;;;;;;;6.67;3.83;;;;;;;;;;10325965;28;20099;-61
2021/01/10 15:16:15;;;;;;;6.35;3.70;;;;;;;;;;10326172;28;20574;-65
2021/01/10 15:21:12;;;;;;;10.30;4.50;;;;;;;;;;10317081;28;20136;-61
2021/01/10 15:26:10;;;;;;;12.27;5.27;;;;;;;;;;10332836;28;20043;-63
2021/01/10 15:31:07;;;;;;;7.77;3.33;;;;;;;;;;10306187;28;20045;-62
2021/01/10 15:36:08;;;;;;;11.70;4.23;;;;;;;;;;10329229;28;20047;-63
2021/01/10 15:41:09;;;;;;;11.38;5.88;;;;;;;;;;10325175;28;20132;-62
2021/01/10 15:46:07;;;;;;;11.10;5.57;;;;;;;;;;10318801;28;20048;-63
2021/01/10 15:51:14;;;;;;;14.65;5.85;;;;;;;;;;10338320;28;20059;-64
2021/01/10 15:56:13;;;;;;;14.18;4.35;;;;;;;;;;10327991;28;20029;-62
2021/01/10 16:01:10;;;;;;;12.70;6.07;;;;;;;;;;10325642;28;20041;-63
2021/01/10 16:06:08;;;;;;;11.50;5.23;;;;;;;;;;10316404;28;20091;-64
2021/01/10 16:11:05;;;;;;;10.77;5.60;;;;;;;;;;10321720;28;20041;-63
2021/01/10 16:16:03;;;;;;;9.47;4.73;;;;;;;;;;10331951;28;20033;-63
2021/01/10 16:21:00;;;;;;;10.43;6.30;;;;;;;;;;10336087;28;20099;-63
2021/01/10 16:25:57;;;;;;;11.23;6.27;;;;;;;;;;10326311;28;20431;-63
2021/01/10 16:31:04;;;;;;;15.53;7.27;;;;;;;;;;10319167;28;20037;-63
2021/01/10 16:36:02;;;;;;;13.88;6.45;;;;;;;;;;10319806;28;20472;-62
2021/01/10 16:41:00;;;;;;;14.93;5.97;;;;;;;;;;10330275;28;20076;-62
2021/01/10 16:45:57;;;;;;;13.75;6.40;;;;;;;;;;10321204;28;20244;-61
2021/01/10 16:50:55;;;;;;;14.20;6.50;;;;;;;;;;10328823;28;20037;-62
2021/01/10 16:55:52;;;;;;;15.33;6.60;;;;;;;;;;10313697;28;20086;-63
2021/01/10 17:00:49;;;;;;;14.60;6.13;;;;;;;;;;10313028;28;20473;-62
2021/01/10 17:05:47;;;;;;;10.17;5.83;;;;;;;;;;10323764;28;20103;-61
2021/01/10 17:10:45;;;;;;;9.93;4.93;;;;;;;;;;10321311;28;20628;-62
2021/01/10 17:15:42;;;;;;;7.30;4.53;;;;;;;;;;10327122;28;20029;-62
2021/01/10 17:20:40;;;;;;;13.40;6.03;;;;;;;;;;10320918;28;20059;-63
2021/01/10 17:25:37;;;;;;;12.80;7.03;;;;;;;;;;10324780;28;20056;-62
2021/01/10 17:30:35;;;;;;;13.80;6.97;;;;;;;;;;10319537;28;20044;-61
2021/01/10 17:35:32;;;;;;;12.20;6.95;;;;;;;;;;10321345;28;20450;-61
2021/01/10 17:40:30;;;;;;;12.50;7.10;;;;;;;;;;10306484;28;20041;-63
2021/01/10 17:45:27;;;;;;;20.07;8.03;;;;;;;;;;10323535;28;20056;-63
2021/01/10 17:50:25;;;;;;;13.67;6.07;;;;;;;;;;10323756;28;20502;-64
2021/01/10 17:55:22;;;;;;;18.30;8.73;;;;;;;;;;10324769;28;20041;-65
2021/01/10 18:00:20;;;;;;;16.30;8.53;;;;;;;;;;10323339;28;20025;-63
2021/01/10 18:05:17;;;;;;;10.43;6.83;;;;;;;;;;10318775;28;20032;-62
2021/01/10 18:10:15;;;;;;;20.57;7.70;;;;;;;;;;10328641;28;20029;-61
2021/01/10 18:15:13;;;;;;;11.98;5.95;;;;;;;;;;10317007;28;20029;-63
2021/01/10 18:20:10;;;;;;;18.83;7.70;;;;;;;;;;10323092;28;20033;-62
2021/01/10 18:25:08;;;;;;;14.87;7.57;;;;;;;;;;10322267;28;20102;-62
2021/01/10 18:30:08;;;;;;;14.57;7.07;;;;;;;;;;10319460;28;20037;-62
2021/01/10 18:35:07;;;;;;;17.98;7.28;;;;;;;;;;10313663;28;20275;-63
2021/01/10 18:40:06;;;;;;;17.20;8.93;;;;;;;;;;10334258;28;20032;-62
2021/01/10 18:45:04;;;;;;;16.17;8.30;;;;;;;;;;10321136;28;20037;-61
2021/01/10 18:50:02;;;;;;;18.05;8.73;;;;;;;;;;10329798;28;20107;-62
2021/01/10 18:54:59;;;;;;;18.67;8.07;;;;;;;;;;10301757;28;20106;-63
2021/01/10 18:59:57;;;;;;;16.57;8.33;;;;;;;;;;10334730;28;20048;-63
2021/01/10 19:04:54;;;;;;;19.67;9.63;;;;;;;;;;10327861;28;20194;-62
2021/01/10 19:09:52;;;;;;;17.07;10.17;;;;;;;;;;10340423;28;20415;-63
2021/01/10 19:14:51;;;;;;;18.90;9.27;;;;;;;;;;10336194;28;20056;-63
2021/01/10 19:19:49;;;;;;;14.77;7.97;;;;;;;;;;10318034;28;20403;-66
2021/01/10 19:24:46;;;;;;;21.23;9.97;;;;;;;;;;10338163;28;20037;-64
2021/01/10 19:29:44;;;;;;;20.20;9.97;;;;;;;;;;10330834;28;20033;-62
2021/01/10 19:34:41;;;;;;;18.13;8.57;;;;;;;;;;10328474;28;20647;-63
2021/01/10 19:39:38;;;;;;;14.30;8.40;;;;;;;;;;10326250;28;20119;-62
2021/01/10 19:44:36;;;;;;;19.60;9.83;;;;;;;;;;10335688;28;20072;-62
2021/01/10 19:49:33;;;;;;;18.20;9.13;;;;;;;;;;10337949;28;20041;-62
2021/01/10 19:54:30;;;;;;;22.03;10.10;;;;;;;;;;10329762;28;20356;-62
2021/01/10 19:59:28;;;;;;;22.00;11.93;;;;;;;;;;10330882;28;20037;-62
2021/01/10 20:04:26;;;;;;;22.67;12.77;;;;;;;;;;10335205;28;20481;-62
2021/01/10 20:09:25;;;;;;;22.67;12.20;;;;;;;;;;10342488;28;20515;-62
2021/01/10 20:14:23;;;;;;;21.17;10.63;;;;;;;;;;10330677;28;20041;-63
2021/01/10 20:19:26;;;;;;;20.93;10.83;;;;;;;;;;10332548;28;20116;-62
2021/01/10 20:24:24;;;;;;;14.52;7.78;;;;;;;;;;10335196;28;20128;-63
2021/01/10 20:29:21;;;;;;;14.53;7.60;;;;;;;;;;10325650;28;20594;-63
2021/01/10 20:34:19;;;;;;;13.50;7.03;;;;;;;;;;10318296;28;20123;-63
2021/01/10 20:39:16;;;;;;;16.30;8.00;;;;;;;;;;10330482;28;20098;-63
2021/01/10 20:44:14;;;;;;;20.07;7.40;;;;;;;;;;10327050;28;20288;-62
2021/01/10 20:49:11;;;;;;;12.05;6.68;;;;;;;;;;10330328;28;20048;-64
2021/01/10 20:54:10;;;;;;;15.90;8.07;;;;;;;;;;10319516;28;20410;-63
2021/01/10 20:59:07;;;;;;;15.95;9.20;;;;;;;;;;10319948;28;20048;-63
2021/01/10 21:04:04;;;;;;;16.13;8.50;;;;;;;;;;10331437;28;20051;-61
2021/01/10 21:09:02;;;;;;;21.77;10.83;;;;;;;;;;10313554;28;20132;-63
2021/01/10 21:14:01;;;;;;;32.92;16.23;;;;;;;;;;10328262;28;20041;-64
2021/01/10 21:18:58;;;;;;;;;;;;;;;;;;10316044;28;20477;-62
2021/01/10 21:23:56;;;;;;;36.30;17.77;;;;;;;;;;10323828;28;19917;-62
2021/01/10 21:28:53;;;;;;;30.03;13.47;;;;;;;;;;10314639;28;20098;-62
2021/01/10 21:33:50;;;;;;;27.90;14.00;;;;;;;;;;10301350;28;20404;-62
2021/01/10 21:38:48;;;;;;;19.10;9.30;;;;;;;;;;10324307;28;20479;-62
2021/01/10 21:43:47;;;;;;;14.73;7.53;;;;;;;;;;10326914;28;20404;-64
2021/01/10 21:48:49;;;;;;;15.38;7.57;;;;;;;;;;10309784;28;20454;-64
2021/01/10 21:53:50;;;;;;;18.20;8.05;;;;;;;;;;10310580;28;20487;-64
2021/01/10 21:58:48;;;;;;;14.43;6.47;;;;;;;;;;10325497;28;20037;-62
2021/01/10 22:03:45;;;;;;;10.75;5.43;;;;;;;;;;10328130;28;20464;-62
2021/01/10 22:08:43;;;;;;;10.10;4.90;;;;;;;;;;10323763;28;20119;-62
2021/01/10 22:13:41;;;;;;;13.25;7.30;;;;;;;;;;10324375;28;20090;-63
2021/01/10 22:18:39;;;;;;;15.82;7.68;;;;;;;;;;10326038;28;20033;-62
2021/01/10 22:23:36;;;;;;;18.87;7.40;;;;;;;;;;10308599;28;20051;-62
2021/01/10 22:28:35;;;;;;;11.38;6.15;;;;;;;;;;10318873;28;20033;-62
2021/01/10 22:33:33;;;;;;;10.77;5.57;;;;;;;;;;10326087;28;20368;-63
2021/01/10 22:38:31;;;;;;;12.23;6.63;;;;;;;;;;10319086;28;20443;-62
2021/01/10 22:43:30;;;;;;;9.30;5.65;;;;;;;;;;10314872;28;20048;-63
2021/01/10 22:48:27;;;;;;;;;;;;;;;;;;10318746;28;20434;-63
2021/01/10 22:53:24;;;;;;;12.43;6.28;;;;;;;;;;10326388;28;19924;-64
2021/01/10 22:58:22;;;;;;;7.30;4.53;;;;;;;;;;10329907;28;20017;-64
2021/01/10 23:03:19;;;;;;;6.37;2.87;;;;;;;;;;10330783;28;20062;-61
2021/01/10 23:08:17;;;;;;;12.20;5.87;;;;;;;;;;10319637;28;20032;-61
2021/01/10 23:13:14;;;;;;;8.57;5.03;;;;;;;;;;10318995;28;20032;-62
2021/01/10 23:18:12;;;;;;;9.30;5.17;;;;;;;;;;10325038;28;20044;-61
2021/01/10 23:23:09;;;;;;;13.67;6.47;;;;;;;;;;10324596;28;20475;-63
2021/01/10 23:28:06;;;;;;;13.40;5.87;;;;;;;;;;10319963;28;20024;-62
2021/01/10 23:33:04;;;;;;;8.63;4.60;;;;;;;;;;10321412;28;20357;-61
2021/01/10 23:38:02;;;;;;;16.83;7.23;;;;;;;;;;10321040;28;20049;-61
2021/01/10 23:42:59;;;;;;;15.88;6.43;;;;;;;;;;10289131;28;20140;-63
2021/01/10 23:47:57;;;;;;;15.20;7.47;;;;;;;;;;10291605;28;20049;-63
2021/01/10 23:52:54;;;;;;;19.73;7.73;;;;;;;;;;10321857;28;20040;-62
2021/01/10 23:57:51;;;;;;;19.43;8.70;;;;;;;;;;10319552;28;20511;-62
